createdAt,value
2018-06-29T00:01:34.133Z,3.10
2018-06-29T00:04:03.077Z,2.70
2018-06-29T00:06:31.898Z,3.63
2018-06-29T00:09:00.733Z,3.30
2018-06-29T00:11:29.645Z,2.60
2018-06-29T00:13:58.435Z,2.47
2018-06-29T00:16:27.278Z,2.83
2018-06-29T00:18:56.427Z,2.50
2018-06-29T00:21:25.201Z,1.60
2018-06-29T00:23:53.992Z,1.90
2018-06-29T00:26:22.816Z,1.73
2018-06-29T00:28:51.581Z,1.87
2018-06-29T00:31:20.340Z,2.00
2018-06-29T00:33:49.181Z,1.37
2018-06-29T00:36:17.961Z,1.43
2018-06-29T00:38:46.728Z,1.80
2018-06-29T00:41:15.749Z,1.97
2018-06-29T00:43:44.509Z,2.07
2018-06-29T00:46:13.290Z,2.80
2018-06-29T00:48:42.616Z,2.53
2018-06-29T00:51:11.396Z,2.57
2018-06-29T00:53:40.242Z,2.57
2018-06-29T00:56:09.276Z,3.07
2018-06-29T00:58:38.045Z,2.83
2018-06-29T01:01:06.887Z,3.13
2018-06-29T01:03:35.860Z,3.07
2018-06-29T01:06:04.648Z,3.90
2018-06-29T01:08:33.427Z,4.60
2018-06-29T01:11:02.264Z,5.07
2018-06-29T01:13:31.049Z,5.63
2018-06-29T01:15:59.874Z,7.37
2018-06-29T01:18:28.830Z,6.83
2018-06-29T01:20:57.612Z,5.93
2018-06-29T01:23:26.400Z,5.93
2018-06-29T01:25:55.531Z,7.23
2018-06-29T01:28:24.379Z,6.30
2018-06-29T01:30:53.217Z,6.03
2018-06-29T01:33:22.152Z,6.73
2018-06-29T01:35:51.131Z,6.00
2018-06-29T01:38:19.906Z,7.73
2018-06-29T01:40:48.826Z,9.43
2018-06-29T01:43:17.673Z,9.37
2018-06-29T01:45:46.484Z,10.30
2018-06-29T01:48:15.306Z,14.03
2018-06-29T01:50:44.085Z,11.17
2018-06-29T01:53:12.850Z,13.07
2018-06-29T01:55:41.947Z,9.67
2018-06-29T01:58:10.734Z,14.03
2018-06-29T02:00:39.506Z,14.10
2018-06-29T02:03:08.346Z,12.33
2018-06-29T02:05:37.176Z,17.63
2018-06-29T02:08:06.104Z,15.43
2018-06-29T02:10:35.339Z,16.50
2018-06-29T02:13:04.197Z,17.40
2018-06-29T02:15:32.996Z,14.07
2018-06-29T02:18:01.823Z,11.27
2018-06-29T02:20:30.625Z,9.47
2018-06-29T02:22:59.392Z,7.57
2018-06-29T02:25:28.226Z,6.40
2018-06-29T02:27:57.014Z,7.10
2018-06-29T02:30:25.960Z,8.47
2018-06-29T02:32:55.133Z,9.03
2018-06-29T02:35:23.963Z,5.73
2018-06-29T02:37:52.706Z,7.90
2018-06-29T02:40:21.521Z,6.07
2018-06-29T02:42:50.334Z,6.53
2018-06-29T02:45:19.104Z,4.20
2018-06-29T02:47:48.244Z,5.73
2018-06-29T02:50:17.024Z,3.90
2018-06-29T02:52:45.796Z,3.43
2018-06-29T02:55:14.669Z,3.10
2018-06-29T02:57:43.450Z,2.70
2018-06-29T03:00:12.278Z,3.97
2018-06-29T03:02:41.090Z,6.80
2018-06-29T03:05:09.855Z,2.13
2018-06-29T03:07:38.647Z,1.90
2018-06-29T03:10:07.516Z,2.17
2018-06-29T03:12:36.328Z,2.07
2018-06-29T03:15:05.284Z,1.47
2018-06-29T03:17:34.120Z,1.33
2018-06-29T03:20:02.914Z,2.03
2018-06-29T03:22:31.675Z,1.30
2018-06-29T03:25:00.556Z,1.10
2018-06-29T03:27:29.365Z,1.10
2018-06-29T03:29:58.136Z,1.50
2018-06-29T03:32:27.113Z,1.53
2018-06-29T03:34:55.905Z,2.00
2018-06-29T03:37:24.741Z,1.63
2018-06-29T03:39:53.599Z,1.90
2018-06-29T03:42:22.382Z,1.90
2018-06-29T03:44:51.178Z,1.63
2018-06-29T03:47:20.012Z,1.50
2018-06-29T03:49:48.785Z,1.17
2018-06-29T03:52:17.619Z,1.47
2018-06-29T03:54:46.464Z,2.00
2018-06-29T03:57:15.244Z,1.80
2018-06-29T03:59:44.044Z,1.50
2018-06-29T04:02:12.880Z,1.20
2018-06-29T04:04:41.879Z,1.20
2018-06-29T04:07:10.669Z,1.20
2018-06-29T04:09:39.489Z,1.33
2018-06-29T04:12:08.358Z,1.37
2018-06-29T04:14:37.157Z,1.50
2018-06-29T04:17:06.323Z,1.50
2018-06-29T04:19:35.130Z,1.57
2018-06-29T04:22:03.940Z,1.30
2018-06-29T04:24:32.979Z,1.30
2018-06-29T04:27:01.730Z,1.20
2018-06-29T04:29:30.505Z,1.10
2018-06-29T04:31:59.647Z,1.40
2018-06-29T04:34:28.420Z,1.23
2018-06-29T04:36:57.192Z,0.97
2018-06-29T04:39:25.985Z,1.30
2018-06-29T04:41:54.796Z,1.30
2018-06-29T04:44:23.563Z,0.90
2018-06-29T04:46:52.400Z,1.03
2018-06-29T04:49:21.195Z,1.10
2018-06-29T04:51:50.012Z,1.90
2018-06-29T04:54:18.832Z,1.30
2018-06-29T04:56:47.615Z,1.50
2018-06-29T04:59:16.413Z,1.10
2018-06-29T05:01:45.411Z,1.20
2018-06-29T05:04:14.183Z,1.07
2018-06-29T05:06:42.935Z,1.20
2018-06-29T05:09:11.727Z,1.80
2018-06-29T05:11:40.499Z,1.70
2018-06-29T05:14:09.280Z,1.70
2018-06-29T05:16:38.217Z,1.90
2018-06-29T05:19:07.017Z,2.10
2018-06-29T05:21:35.791Z,1.70
2018-06-29T05:24:04.729Z,1.90
2018-06-29T05:26:33.540Z,1.90
2018-06-29T05:29:02.328Z,1.83
2018-06-29T05:31:31.132Z,2.40
2018-06-29T05:33:59.974Z,3.70
2018-06-29T05:36:28.794Z,3.07
2018-06-29T05:38:57.607Z,2.43
2018-06-29T05:41:26.522Z,3.30
2018-06-29T05:43:55.277Z,6.00
2018-06-29T05:46:24.143Z,4.10
2018-06-29T05:48:52.936Z,4.33
2018-06-29T05:51:21.802Z,5.23
2018-06-29T05:53:50.943Z,5.10
2018-06-29T05:56:19.734Z,5.73
2018-06-29T05:58:48.530Z,5.50
2018-06-29T06:01:17.427Z,6.03
2018-06-29T06:03:46.265Z,5.93
2018-06-29T06:06:15.037Z,5.93
2018-06-29T06:08:43.845Z,6.53
2018-06-29T06:11:12.614Z,6.60
2018-06-29T06:13:41.413Z,6.77
2018-06-29T06:16:10.631Z,6.63
2018-06-29T06:18:39.370Z,5.87
2018-06-29T06:21:08.282Z,6.30
2018-06-29T06:23:37.097Z,5.40
2018-06-29T06:26:05.879Z,5.20
2018-06-29T06:28:34.753Z,5.37
2018-06-29T06:31:03.741Z,6.27
2018-06-29T06:33:32.509Z,5.17
2018-06-29T06:36:01.327Z,5.23
2018-06-29T06:38:30.265Z,5.60
2018-06-29T06:40:59.043Z,6.13
2018-06-29T06:43:27.823Z,8.17
2018-06-29T06:45:56.644Z,6.37
2018-06-29T06:48:25.408Z,5.37
2018-06-29T06:50:54.242Z,6.23
2018-06-29T06:53:23.083Z,6.20
2018-06-29T06:55:51.855Z,6.50
2018-06-29T06:58:20.698Z,7.00
2018-06-29T07:00:49.700Z,6.20
2018-06-29T07:03:18.494Z,6.10
2018-06-29T07:05:47.274Z,5.07
2018-06-29T07:08:16.078Z,5.53
2018-06-29T07:10:44.899Z,4.87
2018-06-29T07:13:13.691Z,5.87
2018-06-29T07:15:42.507Z,5.63
2018-06-29T07:18:11.318Z,5.43
2018-06-29T07:20:40.098Z,6.87
2018-06-29T07:23:09.081Z,5.70
2018-06-29T07:25:37.891Z,7.87
2018-06-29T07:28:06.998Z,5.93
2018-06-29T07:30:36.106Z,5.00
2018-06-29T07:33:04.877Z,5.97
2018-06-29T07:35:33.677Z,6.23
2018-06-29T07:38:02.500Z,5.90
2018-06-29T07:40:31.319Z,5.97
2018-06-29T07:43:00.087Z,6.20
2018-06-29T07:45:29.240Z,5.17
2018-06-29T07:47:58.031Z,5.47
2018-06-29T07:50:26.837Z,6.00
2018-06-29T07:52:55.999Z,6.40
2018-06-29T07:55:24.807Z,5.70
2018-06-29T07:57:53.587Z,8.47
2018-06-29T08:00:22.393Z,8.73
2018-06-29T08:02:51.151Z,7.27
2018-06-29T08:05:19.951Z,7.30
2018-06-29T08:07:48.868Z,6.23
2018-06-29T08:10:17.659Z,9.87
2018-06-29T08:12:46.450Z,6.20
2018-06-29T08:15:15.238Z,20.20
2018-06-29T08:17:43.989Z,6.60
2018-06-29T08:20:12.793Z,11.93
2018-06-29T08:22:41.583Z,6.07
2018-06-29T08:25:13.189Z,6.57
2018-06-29T08:27:42.291Z,5.27
2018-06-29T08:30:12.034Z,6.13
2018-06-29T08:32:40.922Z,6.73
2018-06-29T08:35:10.751Z,5.37
2018-06-29T08:37:40.065Z,5.83
2018-06-29T08:40:09.968Z,6.17
2018-06-29T08:42:38.920Z,4.30
2018-06-29T08:45:08.741Z,4.37
2018-06-29T08:47:37.556Z,3.97
2018-06-29T08:50:06.615Z,5.07
2018-06-29T08:52:35.403Z,4.63
2018-06-29T08:55:04.591Z,5.37
2018-06-29T08:57:33.421Z,4.27
2018-06-29T09:00:02.256Z,3.97
2018-06-29T09:02:31.225Z,3.30
2018-06-29T09:05:00.241Z,4.13
2018-06-29T09:07:28.992Z,3.70
2018-06-29T09:09:57.787Z,4.20
2018-06-29T09:12:26.700Z,4.00
2018-06-29T09:14:55.501Z,3.60
2018-06-29T09:17:24.272Z,4.33
2018-06-29T09:19:53.321Z,4.07
2018-06-29T09:22:22.136Z,4.13
2018-06-29T09:24:50.967Z,4.00
2018-06-29T09:27:19.731Z,6.87
2018-06-29T09:29:48.582Z,3.80
2018-06-29T09:32:17.338Z,4.47
2018-06-29T09:34:46.192Z,5.67
2018-06-29T09:37:14.981Z,6.70
2018-06-29T09:39:43.780Z,4.63
2018-06-29T09:42:12.709Z,7.13
2018-06-29T09:44:41.511Z,4.90
2018-06-29T09:47:10.302Z,3.60
2018-06-29T09:49:39.475Z,5.60
2018-06-29T09:52:08.339Z,4.63
2018-06-29T09:54:37.160Z,9.20
2018-06-29T09:57:06.979Z,6.27
2018-06-29T09:59:35.780Z,3.90
2018-06-29T10:02:04.750Z,5.13
2018-06-29T10:04:33.566Z,4.67
2018-06-29T10:07:02.380Z,4.07
2018-06-29T10:09:31.151Z,4.70
2018-06-29T10:12:00.192Z,4.10
2018-06-29T10:14:29.103Z,4.40
2018-06-29T10:16:57.870Z,4.60
2018-06-29T10:19:26.877Z,4.33
2018-06-29T10:21:55.736Z,4.80
2018-06-29T10:24:24.618Z,4.30
2018-06-29T10:26:53.445Z,4.00
2018-06-29T10:29:22.260Z,6.57
2018-06-29T10:31:51.040Z,4.53
2018-06-29T10:34:19.870Z,4.43
2018-06-29T10:36:48.738Z,4.90
2018-06-29T10:39:17.504Z,11.47
2018-06-29T10:41:46.396Z,4.47
2018-06-29T10:44:15.177Z,6.33
2018-06-29T10:46:43.975Z,8.37
2018-06-29T10:49:12.796Z,6.03
2018-06-29T10:51:41.557Z,5.27
2018-06-29T10:54:10.361Z,5.03
2018-06-29T10:56:39.281Z,6.57
2018-06-29T10:59:08.086Z,5.80
2018-06-29T11:01:36.880Z,7.07
2018-06-29T11:04:05.734Z,5.63
2018-06-29T11:06:34.526Z,9.07
2018-06-29T11:09:03.487Z,8.27
2018-06-29T11:11:32.437Z,5.07
2018-06-29T11:14:01.293Z,6.53
2018-06-29T11:16:30.121Z,6.27
2018-06-29T11:18:59.274Z,6.23
2018-06-29T11:21:29.031Z,6.57
2018-06-29T11:23:57.846Z,7.63
2018-06-29T11:26:26.773Z,7.37
2018-06-29T11:28:55.738Z,7.17
2018-06-29T11:31:24.544Z,7.60
2018-06-29T11:33:53.545Z,6.03
2018-06-29T11:36:22.377Z,7.33
2018-06-29T11:38:51.172Z,6.87
2018-06-29T11:41:20.096Z,7.70
2018-06-29T11:43:48.928Z,8.53
2018-06-29T11:46:17.765Z,7.37
2018-06-29T11:48:46.724Z,8.70
2018-06-29T11:51:15.465Z,10.40
2018-06-29T11:53:44.263Z,8.13
2018-06-29T11:56:13.111Z,10.30
2018-06-29T11:58:41.909Z,7.63
2018-06-29T12:01:10.773Z,5.83
2018-06-29T12:03:39.637Z,5.70
2018-06-29T12:06:08.445Z,6.00
2018-06-29T12:08:37.296Z,7.57
2018-06-29T12:11:06.701Z,8.17
2018-06-29T12:13:35.526Z,5.20
2018-06-29T12:16:04.327Z,5.63
2018-06-29T12:18:33.203Z,3.50
2018-06-29T12:21:02.007Z,4.00
2018-06-29T12:23:30.802Z,3.77
2018-06-29T12:25:59.751Z,3.90
2018-06-29T12:28:28.640Z,3.97
2018-06-29T12:30:57.990Z,4.10
2018-06-29T12:33:26.831Z,5.13
2018-06-29T12:35:55.642Z,4.60
2018-06-29T12:38:24.415Z,4.30
2018-06-29T12:40:53.313Z,5.73
2018-06-29T12:43:22.246Z,4.40
2018-06-29T12:45:51.085Z,2.80
2018-06-29T12:48:19.905Z,3.37
2018-06-29T12:50:48.684Z,3.27
2018-06-29T12:53:17.463Z,3.60
2018-06-29T12:55:46.438Z,3.13
2018-06-29T12:58:15.281Z,3.47
2018-06-29T13:00:44.130Z,3.63
2018-06-29T13:03:13.134Z,3.10
2018-06-29T13:05:42.054Z,2.93
2018-06-29T13:08:10.837Z,3.33
2018-06-29T13:10:39.642Z,3.37
2018-06-29T13:13:08.442Z,5.20
2018-06-29T13:15:37.274Z,2.47
2018-06-29T13:18:06.200Z,3.00
2018-06-29T13:20:35.006Z,3.20
2018-06-29T13:23:03.960Z,3.80
2018-06-29T13:25:33.079Z,3.80
2018-06-29T13:28:01.884Z,4.40
2018-06-29T13:30:30.676Z,3.20
2018-06-29T13:32:59.473Z,3.33
2018-06-29T13:35:28.265Z,3.27
2018-06-29T13:37:57.106Z,3.33
2018-06-29T13:40:25.928Z,3.07
2018-06-29T13:42:54.727Z,4.10
2018-06-29T13:45:23.540Z,3.47
2018-06-29T13:47:52.356Z,3.50
2018-06-29T13:50:21.134Z,3.20
2018-06-29T13:52:49.927Z,3.03
2018-06-29T13:55:18.744Z,3.40
2018-06-29T13:57:47.550Z,3.47
2018-06-29T14:00:16.344Z,3.40
2018-06-29T14:02:45.362Z,3.37
2018-06-29T14:05:14.497Z,3.40
2018-06-29T14:07:43.340Z,3.50
2018-06-29T14:10:12.347Z,4.40
2018-06-29T14:12:41.153Z,4.53
2018-06-29T14:15:10.928Z,4.47
2018-06-29T14:17:39.774Z,4.93
2018-06-29T14:20:08.643Z,4.83
2018-06-29T14:22:37.473Z,8.47
2018-06-29T14:25:06.705Z,4.77
2018-06-29T14:27:35.512Z,7.67
2018-06-29T14:30:04.456Z,9.23
2018-06-29T14:32:33.362Z,7.90
2018-06-29T14:35:02.234Z,6.50
2018-06-29T14:37:31.023Z,7.60
2018-06-29T14:40:00.012Z,11.43
2018-06-29T14:42:28.814Z,14.93
2018-06-29T14:44:57.611Z,13.53
2018-06-29T14:47:26.404Z,7.63
2018-06-29T14:49:55.181Z,5.10
2018-06-29T14:52:23.966Z,6.23
2018-06-29T14:54:52.916Z,6.17
2018-06-29T14:57:21.729Z,15.70
2018-06-29T14:59:50.533Z,13.17
2018-06-29T15:02:19.482Z,12.53
2018-06-29T15:04:48.300Z,4.93
2018-06-29T15:07:17.100Z,5.47
2018-06-29T15:09:45.921Z,6.77
2018-06-29T15:12:14.727Z,5.50
2018-06-29T15:14:43.530Z,4.67
2018-06-29T15:17:12.348Z,4.57
2018-06-29T15:19:41.173Z,4.43
2018-06-29T15:22:09.994Z,6.00
2018-06-29T15:24:38.843Z,4.97
2018-06-29T15:27:07.640Z,4.53
2018-06-29T15:29:36.452Z,5.27
2018-06-29T15:32:05.469Z,4.27
2018-06-29T15:34:34.245Z,4.80
2018-06-29T15:37:03.060Z,3.57
2018-06-29T15:39:31.967Z,6.10
2018-06-29T15:42:00.748Z,4.97
2018-06-29T15:44:29.547Z,4.73
2018-06-29T15:46:58.406Z,5.33
2018-06-29T15:49:27.225Z,5.07
2018-06-29T15:51:56.024Z,6.27
2018-06-29T15:54:25.295Z,5.43
2018-06-29T15:56:54.109Z,5.93
2018-06-29T15:59:22.968Z,4.97
2018-06-29T16:01:51.829Z,4.60
2018-06-29T16:04:20.659Z,3.70
2018-06-29T16:06:49.510Z,4.30
2018-06-29T16:09:18.424Z,4.13
2018-06-29T16:11:47.249Z,5.03
2018-06-29T16:14:16.068Z,12.57
2018-06-29T16:16:45.063Z,4.77
2018-06-29T16:19:13.857Z,6.17
2018-06-29T16:21:42.709Z,5.33
2018-06-29T16:24:11.687Z,5.30
2018-06-29T16:26:40.484Z,4.23
2018-06-29T16:29:09.358Z,5.23
2018-06-29T16:31:38.160Z,7.90
2018-06-29T16:34:06.940Z,8.37
